createdAt,value
2023-05-14T00:00:25.432Z,992.49
2023-05-14T00:01:26.954Z,992.48
2023-05-14T00:02:28.711Z,992.42
2023-05-14T00:03:30.538Z,992.46
2023-05-14T00:04:32.318Z,992.48
2023-05-14T00:05:33.934Z,992.5
2023-05-14T00:06:35.684Z,992.46
2023-05-14T00:07:37.429Z,992.49
2023-05-14T00:08:39.101Z,992.5
2023-05-14T00:09:40.828Z,992.47
2023-05-14T00:10:42.793Z,992.42
2023-05-14T00:11:49.533Z,992.47
2023-05-14T00:12:51.295Z,992.41
2023-05-14T00:13:52.888Z,992.43
2023-05-14T00:14:54.605Z,992.38
2023-05-14T00:15:56.444Z,992.45
2023-05-14T00:16:58.074Z,992.4
2023-05-14T00:17:59.928Z,992.42
2023-05-14T00:19:01.652Z,992.42
2023-05-14T00:20:03.387Z,992.44
2023-05-14T00:21:05.009Z,992.34
2023-05-14T00:22:06.757Z,992.36
2023-05-14T00:23:08.674Z,992.4
2023-05-14T00:24:10.246Z,992.37
2023-05-14T00:25:11.952Z,992.38
2023-05-14T00:26:13.694Z,992.39
2023-05-14T00:27:15.436Z,992.37
2023-05-14T00:28:17.227Z,992.39
2023-05-14T00:29:18.906Z,992.4
2023-05-14T00:30:20.705Z,992.37
2023-05-14T00:31:22.399Z,992.37
2023-05-14T00:32:24.272Z,992.39
2023-05-14T00:33:25.832Z,992.33
2023-05-14T00:34:27.576Z,992.36
2023-05-14T00:35:29.295Z,992.3
2023-05-14T00:36:31.035Z,992.33
2023-05-14T00:37:32.761Z,992.27
2023-05-14T00:38:34.563Z,992.26
2023-05-14T00:39:36.411Z,992.27
2023-05-14T00:40:37.996Z,992.21
2023-05-14T00:41:39.698Z,992.18
2023-05-14T00:42:41.632Z,992.27
2023-05-14T00:43:43.279Z,992.16
2023-05-14T00:44:44.903Z,992.25
2023-05-14T00:45:46.646Z,992.26
2023-05-14T00:46:48.438Z,992.27
2023-05-14T00:47:50.167Z,992.22
2023-05-14T00:48:51.831Z,992.22
2023-05-14T00:49:53.727Z,992.24
2023-05-14T00:50:55.313Z,992.26
2023-05-14T00:51:57.172Z,992.24
2023-05-14T00:52:58.995Z,992.13
2023-05-14T00:54:00.497Z,992.18
2023-05-14T00:55:02.370Z,992.21
2023-05-14T00:56:03.999Z,992.2
2023-05-14T00:57:05.716Z,992.16
2023-05-14T00:58:07.462Z,992.19
2023-05-14T00:59:09.185Z,992.17
2023-05-14T01:00:10.932Z,992.06
2023-05-14T01:01:12.719Z,992.14
2023-05-14T01:02:14.384Z,992.14
2023-05-14T01:03:16.420Z,992.15
2023-05-14T01:04:17.865Z,992.12
2023-05-14T01:05:19.610Z,992.05
2023-05-14T01:06:21.322Z,992.12
2023-05-14T01:07:23.084Z,992.13
2023-05-14T01:08:24.784Z,992.16
2023-05-14T01:09:26.529Z,992.14
2023-05-14T01:10:28.258Z,992.12
2023-05-14T01:11:29.982Z,992.15
2023-05-14T01:12:31.731Z,992.17
2023-05-14T01:13:33.473Z,992.15
2023-05-14T01:14:35.239Z,992.17
2023-05-14T01:15:36.923Z,992.21
2023-05-14T01:16:38.681Z,992.19
2023-05-14T01:17:40.410Z,992.18
2023-05-14T01:18:42.175Z,992.17
2023-05-14T01:19:43.926Z,992.18
2023-05-14T01:20:45.595Z,992.16
2023-05-14T01:21:47.322Z,992.13
2023-05-14T01:22:49.065Z,992.13
2023-05-14T01:23:50.802Z,992.1
2023-05-14T01:24:52.531Z,992.08
2023-05-14T01:25:54.287Z,992.08
2023-05-14T01:26:55.987Z,992.07
2023-05-14T01:27:57.723Z,992.06
2023-05-14T01:28:59.485Z,992.04
2023-05-14T01:30:01.194Z,992.09
2023-05-14T01:31:02.943Z,992.04
2023-05-14T01:32:04.807Z,992.07
2023-05-14T01:33:06.515Z,992.02
2023-05-14T01:34:08.154Z,992.02
2023-05-14T01:35:09.873Z,992.04
2023-05-14T01:36:11.604Z,991.98
2023-05-14T01:37:13.334Z,992.06
2023-05-14T01:38:15.051Z,992.08
2023-05-14T01:39:16.822Z,992.07
2023-05-14T01:40:18.533Z,992.05
2023-05-14T01:41:20.269Z,992.09
2023-05-14T01:42:22.195Z,992.11
2023-05-14T01:43:23.802Z,992.05
2023-05-14T01:44:25.472Z,992.05
2023-05-14T01:45:27.234Z,992.06
2023-05-14T01:46:29.023Z,992.1
2023-05-14T01:47:30.700Z,992.12
2023-05-14T01:48:32.412Z,992.14
2023-05-14T01:49:34.149Z,992.1
2023-05-14T01:50:35.890Z,992.1
2023-05-14T01:51:37.612Z,992.1
2023-05-14T01:52:39.362Z,992.08
2023-05-14T01:53:41.212Z,992.07
2023-05-14T01:54:42.811Z,992.05
2023-05-14T01:55:44.533Z,992.05
2023-05-14T01:56:46.293Z,992.05
2023-05-14T01:57:48.021Z,992.07
2023-05-14T01:58:49.756Z,992.02
2023-05-14T01:59:51.475Z,992.08
2023-05-14T02:00:53.224Z,992
2023-05-14T02:01:54.999Z,992.04
2023-05-14T02:02:56.744Z,992.04
2023-05-14T02:03:58.562Z,991.97
2023-05-14T02:05:00.200Z,992.01
2023-05-14T02:06:01.883Z,992.03
2023-05-14T02:07:03.621Z,991.97
2023-05-14T02:08:05.367Z,992
2023-05-14T02:09:07.069Z,991.98
2023-05-14T02:10:08.810Z,991.99
2023-05-14T02:11:10.548Z,991.95
2023-05-14T02:12:12.300Z,991.89
2023-05-14T02:13:14.020Z,991.99
2023-05-14T02:14:15.744Z,991.95
2023-05-14T02:15:17.487Z,991.88
2023-05-14T02:16:19.335Z,991.98
2023-05-14T02:17:20.961Z,991.92
2023-05-14T02:18:22.678Z,991.94
2023-05-14T02:19:24.428Z,991.93
2023-05-14T02:20:26.272Z,991.95
2023-05-14T02:21:27.911Z,991.89
2023-05-14T02:22:29.608Z,991.96
2023-05-14T02:23:41.141Z,991.94
2023-05-14T02:24:33.133Z,991.96
2023-05-14T02:25:34.836Z,991.96
2023-05-14T02:26:36.557Z,991.97
2023-05-14T02:27:38.275Z,991.97
2023-05-14T02:28:40.159Z,991.97
2023-05-14T02:29:41.765Z,991.94
2023-05-14T02:30:43.768Z,991.93
2023-05-14T02:31:45.424Z,991.9
2023-05-14T02:32:47.057Z,991.93
2023-05-14T02:33:48.701Z,991.93
2023-05-14T02:34:50.439Z,991.93
2023-05-14T02:35:52.172Z,991.85
2023-05-14T02:36:53.923Z,991.92
2023-05-14T02:37:55.659Z,991.88
2023-05-14T02:38:57.364Z,991.9
2023-05-14T02:39:59.119Z,991.86
2023-05-14T02:41:00.819Z,991.87
2023-05-14T02:42:02.585Z,991.85
2023-05-14T02:43:04.298Z,991.82
2023-05-14T02:44:06.051Z,991.87
2023-05-14T02:45:07.788Z,991.81
2023-05-14T02:46:09.512Z,991.87
2023-05-14T02:47:11.289Z,991.87
2023-05-14T02:48:13.194Z,991.88
2023-05-14T02:49:14.714Z,991.83
2023-05-14T02:50:16.464Z,991.82
2023-05-14T02:51:18.172Z,991.83
2023-05-14T02:52:19.906Z,991.81
2023-05-14T02:53:21.643Z,991.83
2023-05-14T02:54:23.390Z,991.84
2023-05-14T02:55:25.176Z,991.87
2023-05-14T02:56:26.840Z,991.84
2023-05-14T02:57:28.584Z,991.87
2023-05-14T02:58:30.319Z,991.84
2023-05-14T02:59:32.081Z,991.82
2023-05-14T03:00:33.797Z,991.85
2023-05-14T03:01:35.528Z,991.86
2023-05-14T03:02:37.356Z,991.88
2023-05-14T03:03:38.963Z,991.84
2023-05-14T03:04:40.757Z,991.82
2023-05-14T03:05:42.427Z,991.85
2023-05-14T03:06:44.179Z,991.79
2023-05-14T03:07:45.929Z,991.82
2023-05-14T03:08:47.656Z,991.78
2023-05-14T03:09:49.387Z,991.86
2023-05-14T03:10:51.165Z,991.79
2023-05-14T03:11:52.851Z,991.82
2023-05-14T03:12:54.604Z,991.82
2023-05-14T03:13:56.319Z,991.84
2023-05-14T03:14:58.068Z,991.81
2023-05-14T03:15:59.949Z,991.83
2023-05-14T03:17:01.585Z,991.82
2023-05-14T03:18:03.282Z,991.83
2023-05-14T03:19:05.071Z,991.84
2023-05-14T03:20:06.717Z,991.83
2023-05-14T03:21:08.446Z,991.81
2023-05-14T03:22:10.195Z,991.81
2023-05-14T03:23:11.927Z,991.81
2023-05-14T03:24:13.657Z,991.8
2023-05-14T03:25:15.408Z,991.79
2023-05-14T03:26:17.149Z,991.8
2023-05-14T03:27:18.867Z,991.75
2023-05-14T03:28:20.590Z,991.79
2023-05-14T03:29:22.323Z,991.81
2023-05-14T03:30:24.320Z,991.85
2023-05-14T03:31:25.874Z,991.77
2023-05-14T03:32:27.554Z,991.83
2023-05-14T03:33:29.262Z,991.81
2023-05-14T03:34:30.980Z,991.82
2023-05-14T03:35:32.968Z,991.85
2023-05-14T03:36:34.460Z,991.84
2023-05-14T03:37:36.187Z,991.8
2023-05-14T03:38:37.946Z,991.84
2023-05-14T03:39:39.676Z,991.82
2023-05-14T03:40:41.471Z,991.83
2023-05-14T03:41:43.139Z,991.8
2023-05-14T03:42:44.858Z,991.81
2023-05-14T03:43:46.617Z,991.82
2023-05-14T03:44:48.327Z,991.8
2023-05-14T03:45:50.086Z,991.77
2023-05-14T03:46:51.787Z,991.8
2023-05-14T03:47:53.648Z,991.83
2023-05-14T03:48:55.347Z,991.8
2023-05-14T03:49:57.000Z,991.77
2023-05-14T03:50:58.714Z,991.78
2023-05-14T03:52:00.502Z,991.78
2023-05-14T03:53:02.305Z,991.75
2023-05-14T03:54:03.937Z,991.78
2023-05-14T03:55:05.660Z,991.77
2023-05-14T03:56:07.401Z,991.77
2023-05-14T03:57:09.137Z,991.79
2023-05-14T03:58:10.867Z,991.76
2023-05-14T03:59:12.602Z,991.76
2023-05-14T04:00:14.359Z,991.76
2023-05-14T04:01:16.059Z,991.78
2023-05-14T04:02:17.896Z,991.78
2023-05-14T04:03:19.639Z,991.75
2023-05-14T04:04:21.483Z,991.76
2023-05-14T04:05:22.994Z,991.74
2023-05-14T04:06:24.734Z,991.74
2023-05-14T04:07:26.498Z,991.74
2023-05-14T04:08:28.203Z,991.74
2023-05-14T04:09:29.936Z,991.7
2023-05-14T04:10:31.663Z,991.72
2023-05-14T04:11:33.399Z,991.76
2023-05-14T04:12:35.134Z,991.71
2023-05-14T04:13:36.852Z,991.71
2023-05-14T04:14:38.588Z,991.74
2023-05-14T04:15:40.500Z,991.7
2023-05-14T04:16:42.247Z,991.68
2023-05-14T04:17:43.832Z,991.73
2023-05-14T04:18:45.572Z,991.73
2023-05-14T04:19:47.279Z,991.76
2023-05-14T04:20:48.966Z,991.79
2023-05-14T04:21:50.728Z,991.76
2023-05-14T04:22:52.494Z,991.8
2023-05-14T04:23:54.209Z,991.77
2023-05-14T04:24:55.913Z,991.78
2023-05-14T04:25:57.643Z,991.78
2023-05-14T04:26:59.418Z,991.75
2023-05-14T04:28:01.196Z,991.78
2023-05-14T04:29:02.928Z,991.79
2023-05-14T04:30:04.608Z,991.74
2023-05-14T04:31:06.350Z,991.81
2023-05-14T04:32:08.128Z,991.83
2023-05-14T04:33:09.848Z,991.83
2023-05-14T04:34:11.538Z,991.83
2023-05-14T04:35:13.281Z,991.86
2023-05-14T04:36:14.998Z,991.86
2023-05-14T04:37:16.758Z,991.89
2023-05-14T04:38:18.482Z,991.88
2023-05-14T04:39:20.202Z,991.88
2023-05-14T04:40:22.331Z,991.89
2023-05-14T04:41:23.690Z,991.87
2023-05-14T04:42:25.415Z,991.82
2023-05-14T04:43:27.152Z,991.89
2023-05-14T04:44:28.863Z,991.89
2023-05-14T04:45:33.485Z,991.88
2023-05-14T04:46:32.404Z,991.86
2023-05-14T04:47:34.156Z,991.87
2023-05-14T04:48:35.800Z,991.82
2023-05-14T04:49:37.547Z,991.77
2023-05-14T04:50:39.300Z,991.8
2023-05-14T04:51:41.007Z,991.83
2023-05-14T04:52:42.739Z,991.8
2023-05-14T04:53:44.473Z,991.81
2023-05-14T04:54:46.442Z,991.8
2023-05-14T04:55:47.945Z,991.83
2023-05-14T04:56:49.677Z,991.85
2023-05-14T04:57:51.401Z,991.84
2023-05-14T04:58:53.146Z,991.84
2023-05-14T04:59:54.880Z,991.84
2023-05-14T05:00:56.690Z,991.84
2023-05-14T05:01:58.368Z,991.87
2023-05-14T05:03:00.319Z,991.83
2023-05-14T05:04:02.009Z,991.9
2023-05-14T05:05:03.552Z,991.91
2023-05-14T05:06:05.297Z,991.9
2023-05-14T05:07:07.023Z,991.87
2023-05-14T05:08:08.748Z,991.88
2023-05-14T05:09:10.694Z,991.91
2023-05-14T05:10:12.296Z,991.89
2023-05-14T05:11:13.981Z,991.84
2023-05-14T05:12:15.702Z,991.89
2023-05-14T05:13:17.439Z,991.87
2023-05-14T05:14:19.212Z,991.89
2023-05-14T05:15:20.897Z,991.85
2023-05-14T05:16:22.789Z,991.84
2023-05-14T05:17:24.426Z,991.84
2023-05-14T05:18:26.268Z,991.87
2023-05-14T05:19:39.735Z,991.9
2023-05-14T05:20:29.585Z,991.87
2023-05-14T05:21:31.299Z,991.89
2023-05-14T05:22:33.039Z,991.91
2023-05-14T05:23:34.793Z,991.91
2023-05-14T05:24:36.507Z,991.93
2023-05-14T05:25:38.246Z,991.93
2023-05-14T05:26:40.024Z,991.9
2023-05-14T05:27:41.724Z,991.92
2023-05-14T05:28:43.440Z,991.9
2023-05-14T05:29:45.177Z,991.93
2023-05-14T05:30:46.912Z,991.92
2023-05-14T05:31:48.755Z,991.89
2023-05-14T05:32:50.537Z,991.88
2023-05-14T05:33:52.115Z,991.8
2023-05-14T05:34:53.859Z,991.84
2023-05-14T05:35:55.612Z,991.83
2023-05-14T05:36:57.335Z,991.86
2023-05-14T05:38:01.304Z,991.86
2023-05-14T05:39:00.799Z,991.85
2023-05-14T05:40:02.594Z,991.82
2023-05-14T05:41:04.253Z,991.82
2023-05-14T05:42:06.000Z,991.86
2023-05-14T05:43:07.741Z,991.84
2023-05-14T05:44:09.464Z,991.9
2023-05-14T05:45:11.180Z,991.83
2023-05-14T05:46:12.976Z,991.87
2023-05-14T05:47:14.652Z,991.87
2023-05-14T05:48:16.386Z,991.88
2023-05-14T05:49:18.178Z,991.83
2023-05-14T05:50:20.135Z,991.88
2023-05-14T05:51:21.592Z,991.9
2023-05-14T05:52:23.342Z,991.9
2023-05-14T05:53:25.263Z,991.86
2023-05-14T05:54:26.796Z,991.91
2023-05-14T05:55:28.551Z,991.9
2023-05-14T05:56:30.255Z,991.89
2023-05-14T05:57:32.018Z,991.9
2023-05-14T05:58:33.729Z,991.86
2023-05-14T05:59:35.465Z,991.88
2023-05-14T06:00:37.208Z,991.87
2023-05-14T06:01:38.956Z,991.92
2023-05-14T06:02:40.808Z,991.9
2023-05-14T06:03:42.434Z,991.88
2023-05-14T06:04:44.175Z,991.93
2023-05-14T06:05:45.890Z,991.91
2023-05-14T06:06:47.622Z,991.86
2023-05-14T06:07:49.327Z,991.81
2023-05-14T06:08:51.089Z,991.86
2023-05-14T06:09:52.826Z,991.82
2023-05-14T06:10:54.552Z,991.8
2023-05-14T06:11:56.310Z,991.82
2023-05-14T06:12:58.088Z,991.82
2023-05-14T06:13:59.765Z,991.84
2023-05-14T06:15:01.632Z,991.87
2023-05-14T06:16:03.258Z,991.84
2023-05-14T06:17:04.965Z,991.86
2023-05-14T06:18:06.767Z,991.85
2023-05-14T06:19:08.481Z,991.85
2023-05-14T06:20:10.190Z,991.86
2023-05-14T06:21:11.898Z,991.79
2023-05-14T06:22:13.636Z,991.82
2023-05-14T06:23:15.371Z,991.87
2023-05-14T06:24:17.132Z,991.84
2023-05-14T06:25:18.846Z,991.82
2023-05-14T06:26:20.721Z,991.83
2023-05-14T06:27:22.290Z,991.86
2023-05-14T06:28:24.061Z,991.88
2023-05-14T06:29:25.782Z,991.88
2023-05-14T06:30:27.573Z,991.84
2023-05-14T06:31:29.295Z,991.89
2023-05-14T06:32:31.039Z,991.81
2023-05-14T06:33:32.728Z,991.87
2023-05-14T06:34:34.481Z,991.89
2023-05-14T06:35:36.277Z,991.8
2023-05-14T06:36:37.946Z,991.81
2023-05-14T06:37:39.890Z,991.83
2023-05-14T06:38:41.407Z,991.87
2023-05-14T06:39:43.110Z,991.83
2023-05-14T06:40:44.837Z,991.82
2023-05-14T06:41:46.582Z,991.87
2023-05-14T06:42:48.316Z,991.89
2023-05-14T06:43:50.059Z,991.88
2023-05-14T06:44:51.795Z,991.87
2023-05-14T06:45:53.551Z,991.88
2023-05-14T06:46:55.265Z,991.89
2023-05-14T06:47:57.071Z,991.89
2023-05-14T06:48:59.632Z,991.89
2023-05-14T06:50:00.450Z,991.91
2023-05-14T06:51:02.210Z,991.88
2023-05-14T06:52:03.933Z,991.88
2023-05-14T06:53:05.677Z,991.88
2023-05-14T06:54:07.414Z,991.88
2023-05-14T06:55:09.148Z,991.92
2023-05-14T06:56:10.920Z,991.93
2023-05-14T06:57:12.648Z,991.9
2023-05-14T06:58:14.339Z,991.92
2023-05-14T06:59:16.063Z,991.92
2023-05-14T07:00:17.811Z,991.92
2023-05-14T07:01:19.643Z,991.88
2023-05-14T07:02:21.402Z,991.87
2023-05-14T07:03:23.025Z,991.94
2023-05-14T07:04:24.779Z,991.92
2023-05-14T07:05:26.677Z,991.9
2023-05-14T07:06:28.225Z,991.9
2023-05-14T07:07:29.946Z,991.89
2023-05-14T07:08:31.675Z,991.79
2023-05-14T07:09:33.408Z,991.86
2023-05-14T07:10:36.530Z,991.8
2023-05-14T07:15:18.538Z,991.79
2023-05-14T07:16:22.747Z,991.87
2023-05-14T07:17:23.614Z,991.86
2023-05-14T07:18:25.198Z,991.89
2023-05-14T07:19:26.925Z,991.88
2023-05-14T07:20:28.618Z,991.8
2023-05-14T07:25:11.023Z,991.78
2023-05-14T07:28:41.748Z,991.73
2023-05-14T07:30:01.547Z,991.74
2023-05-14T07:31:03.261Z,991.72
2023-05-14T07:32:04.081Z,991.72
2023-05-14T07:33:12.927Z,991.74
2023-05-14T07:35:32.764Z,991.7
2023-05-14T07:36:58.861Z,991.73
2023-05-14T07:38:00.554Z,991.71
2023-05-14T07:39:02.367Z,991.7
2023-05-14T07:40:16.050Z,991.72
2023-05-14T07:41:17.969Z,991.72
2023-05-14T07:51:17.310Z,991.65
2023-05-14T07:52:19.034Z,991.62
2023-05-14T07:53:20.802Z,991.6
2023-05-14T07:54:22.504Z,991.69
2023-05-14T07:55:24.237Z,991.69
2023-05-14T07:56:25.971Z,991.64
2023-05-14T07:57:27.728Z,991.63
2023-05-14T07:58:29.454Z,991.58
2023-05-14T07:59:31.358Z,991.57
2023-05-14T08:00:32.918Z,991.64
2023-05-14T08:01:34.660Z,991.62
2023-05-14T08:02:36.511Z,991.55
2023-05-14T08:03:38.381Z,991.62
2023-05-14T08:04:39.965Z,991.59
2023-05-14T08:05:41.605Z,991.55
2023-05-14T08:06:43.332Z,991.52
2023-05-14T08:07:45.075Z,991.55
2023-05-14T08:08:51.785Z,991.57
2023-05-14T08:09:53.503Z,991.56
2023-05-14T08:10:55.281Z,991.55
2023-05-14T08:11:56.971Z,991.51
2023-05-14T08:12:58.713Z,991.56
2023-05-14T08:14:00.435Z,991.58
2023-05-14T08:15:02.230Z,991.58
2023-05-14T08:16:03.903Z,991.55
2023-05-14T08:17:05.816Z,991.53
2023-05-14T08:18:07.487Z,991.56
2023-05-14T08:19:09.262Z,991.54
2023-05-14T08:20:10.861Z,991.57
2023-05-14T08:21:12.586Z,991.54
2023-05-14T08:22:14.360Z,991.53
2023-05-14T08:23:16.142Z,991.53
2023-05-14T08:24:17.770Z,991.49
2023-05-14T08:25:19.628Z,991.47
2023-05-14T08:26:21.245Z,991.47
2023-05-14T08:27:23.172Z,991.46
2023-05-14T08:28:24.696Z,991.39
2023-05-14T08:29:26.445Z,991.38
2023-05-14T08:30:28.474Z,991.38
2023-05-14T08:31:30.094Z,991.42
2023-05-14T08:32:31.730Z,991.4
2023-05-14T08:33:33.389Z,991.3
2023-05-14T08:34:38.435Z,991.31
2023-05-14T08:35:42.033Z,991.32
2023-05-14T08:36:43.730Z,991.29
2023-05-14T08:37:45.458Z,991.27
2023-05-14T08:38:47.191Z,991.26
2023-05-14T08:40:04.567Z,991.25
2023-05-14T08:41:15.950Z,991.2
2023-05-14T08:43:39.725Z,991.23
2023-05-14T08:44:41.439Z,991.17
2023-05-14T08:46:21.994Z,991.17
2023-05-14T08:49:07.139Z,991.11
2023-05-14T08:51:00.372Z,991.11
2023-05-14T08:52:12.380Z,991.11
2023-05-14T08:53:15.244Z,991.1
2023-05-14T08:54:30.164Z,991.11
2023-05-14T08:55:31.697Z,991.11
2023-05-14T08:56:33.440Z,991.09
2023-05-14T08:57:35.152Z,991.06
2023-05-14T08:58:36.903Z,991.12
2023-05-14T08:59:38.652Z,991.06
2023-05-14T09:00:40.354Z,991.02
2023-05-14T09:01:42.134Z,991.08
2023-05-14T09:04:54.980Z,990.96
2023-05-14T09:05:59.388Z,990.99
2023-05-14T09:06:58.933Z,990.93
2023-05-14T09:08:00.662Z,990.87
2023-05-14T09:09:03.629Z,990.97
2023-05-14T09:10:04.209Z,990.9
2023-05-14T09:11:05.938Z,990.95
2023-05-14T09:12:07.621Z,990.96
2023-05-14T09:13:09.327Z,990.93
2023-05-14T09:14:11.063Z,990.91
2023-05-14T09:15:12.945Z,990.88
2023-05-14T09:16:15.914Z,990.92
2023-05-14T09:17:20.817Z,990.9
2023-05-14T09:18:23.368Z,990.91
2023-05-14T09:19:24.913Z,990.95
2023-05-14T09:20:28.825Z,990.89
2023-05-14T09:21:29.382Z,990.92
2023-05-14T09:22:30.330Z,990.86
2023-05-14T09:23:38.434Z,990.92
2023-05-14T09:24:42.671Z,990.89
2023-05-14T09:25:59.247Z,990.89
2023-05-14T09:27:01.594Z,990.88
2023-05-14T09:28:03.303Z,990.85
2023-05-14T09:29:05.064Z,990.83
2023-05-14T09:30:08.049Z,990.88
2023-05-14T09:31:43.036Z,990.83
2023-05-14T09:34:56.979Z,990.82
2023-05-14T09:35:58.705Z,990.83
2023-05-14T09:37:01.675Z,990.83
2023-05-14T09:38:02.177Z,990.85
2023-05-14T09:39:03.910Z,990.84
2023-05-14T09:40:06.768Z,990.88
2023-05-14T09:41:10.673Z,990.85
2023-05-14T09:42:41.033Z,990.86
2023-05-14T09:44:48.584Z,990.84
2023-05-14T09:45:59.975Z,990.86
2023-05-14T09:47:01.307Z,990.85
2023-05-14T09:48:03.262Z,990.84
2023-05-14T09:49:04.742Z,990.87
2023-05-14T09:50:06.523Z,990.85
2023-05-14T09:51:08.219Z,990.87
2023-05-14T09:52:23.565Z,990.83
2023-05-14T09:53:50.431Z,990.85
2023-05-14T09:54:55.819Z,990.86
2023-05-14T09:56:46.123Z,990.82
2023-05-14T09:58:47.332Z,990.81
2023-05-14T10:00:37.138Z,990.85
2023-05-14T10:01:40.395Z,990.8
2023-05-14T10:02:48.338Z,990.84
2023-05-14T10:03:49.841Z,990.85
2023-05-14T10:06:27.891Z,990.83
2023-05-14T10:07:29.783Z,990.85
2023-05-14T10:09:26.180Z,990.85
2023-05-14T10:10:28.247Z,990.85
2023-05-14T10:11:29.696Z,990.86
2023-05-14T10:12:31.399Z,990.82
2023-05-14T10:13:33.123Z,990.82
2023-05-14T10:14:34.924Z,990.84
2023-05-14T10:15:36.581Z,990.81
2023-05-14T10:16:38.478Z,990.84
2023-05-14T10:17:40.118Z,990.83
2023-05-14T10:18:41.812Z,990.84
2023-05-14T10:19:43.523Z,990.83
2023-05-14T10:20:45.282Z,990.8
2023-05-14T10:21:46.963Z,990.81
2023-05-14T10:22:48.696Z,990.78
2023-05-14T10:23:50.421Z,990.8
2023-05-14T10:24:52.171Z,990.8
2023-05-14T10:25:53.917Z,990.78
2023-05-14T10:26:55.626Z,990.78
2023-05-14T10:27:57.350Z,990.77
2023-05-14T10:28:59.310Z,990.82
2023-05-14T10:30:00.814Z,990.84
2023-05-14T10:31:02.687Z,990.81
2023-05-14T10:32:04.307Z,990.79
2023-05-14T10:33:06.228Z,990.79
2023-05-14T10:34:08.215Z,990.8
2023-05-14T10:35:14.068Z,990.79
2023-05-14T10:36:16.734Z,990.77
2023-05-14T10:37:18.422Z,990.75
2023-05-14T10:38:20.148Z,990.73
2023-05-14T10:39:21.906Z,990.75
2023-05-14T10:40:23.813Z,990.75
2023-05-14T10:41:25.365Z,990.72
2023-05-14T10:42:27.107Z,990.72
2023-05-14T10:43:28.814Z,990.7
2023-05-14T10:44:30.550Z,990.74
2023-05-14T10:45:32.278Z,990.73
2023-05-14T10:46:34.122Z,990.72
2023-05-14T10:47:35.788Z,990.68
2023-05-14T10:48:37.503Z,990.62
2023-05-14T10:49:43.341Z,990.7
2023-05-14T10:50:45.045Z,990.7
2023-05-14T10:51:53.075Z,990.68
2023-05-14T10:52:54.822Z,990.71
2023-05-14T10:53:56.539Z,990.72
2023-05-14T10:55:00.069Z,990.69
2023-05-14T10:56:00.002Z,990.65
2023-05-14T10:57:01.734Z,990.68
2023-05-14T10:58:03.488Z,990.66
2023-05-14T10:59:05.276Z,990.62
2023-05-14T11:00:13.149Z,990.62
2023-05-14T11:01:15.904Z,990.64
2023-05-14T11:02:16.761Z,990.63
2023-05-14T11:03:17.297Z,990.65
2023-05-14T11:04:19.357Z,990.59
2023-05-14T11:05:21.061Z,990.6
2023-05-14T11:06:22.449Z,990.61
2023-05-14T11:07:24.330Z,990.56
2023-05-14T11:08:29.304Z,990.6
2023-05-14T11:09:27.688Z,990.58
2023-05-14T11:10:29.413Z,990.59
2023-05-14T11:11:32.270Z,990.52
2023-05-14T11:12:32.867Z,990.56
2023-05-14T11:13:34.700Z,990.6
2023-05-14T11:14:35.636Z,990.55
2023-05-14T11:15:37.945Z,990.59
2023-05-14T11:16:39.768Z,990.56
2023-05-14T11:17:41.442Z,990.55
2023-05-14T11:18:43.210Z,990.55
2023-05-14T11:19:44.948Z,990.52
2023-05-14T11:20:46.634Z,990.49
2023-05-14T11:21:48.407Z,990.5
2023-05-14T11:22:50.282Z,990.54
2023-05-14T11:23:51.874Z,990.47
2023-05-14T11:24:53.585Z,990.49
2023-05-14T11:25:55.358Z,990.48
2023-05-14T11:26:57.022Z,990.51
2023-05-14T11:27:58.798Z,990.47
2023-05-14T11:29:00.514Z,990.48
2023-05-14T11:30:02.233Z,990.47
2023-05-14T11:31:03.972Z,990.5
2023-05-14T11:32:05.878Z,990.44
2023-05-14T11:33:07.453Z,990.44
2023-05-14T11:34:09.153Z,990.38
2023-05-14T11:35:10.898Z,990.46
2023-05-14T11:36:12.663Z,990.39
2023-05-14T11:37:14.490Z,990.41
2023-05-14T11:38:16.106Z,990.42
2023-05-14T11:39:17.864Z,990.36
2023-05-14T11:40:19.578Z,990.34
2023-05-14T11:41:21.691Z,990.37
2023-05-14T11:42:23.068Z,990.37
2023-05-14T11:43:24.791Z,990.34
2023-05-14T11:44:26.504Z,990.35
2023-05-14T11:45:28.257Z,990.32
2023-05-14T11:46:31.522Z,990.35
2023-05-14T11:47:31.733Z,990.3
2023-05-14T11:48:33.439Z,990.24
2023-05-14T11:49:35.177Z,990.26
2023-05-14T11:50:36.904Z,990.23
2023-05-14T11:51:38.747Z,990.29
2023-05-14T11:52:40.435Z,990.21
2023-05-14T11:53:42.136Z,990.25
2023-05-14T11:54:59.006Z,990.22
2023-05-14T11:56:00.740Z,990.2
2023-05-14T11:57:02.461Z,990.2
2023-05-14T11:58:04.317Z,990.19
2023-05-14T11:59:05.933Z,990.19
2023-05-14T12:00:07.649Z,990.18
2023-05-14T12:01:09.388Z,990.13
2023-05-14T12:02:11.419Z,990.12
2023-05-14T12:03:12.961Z,990.2
2023-05-14T12:04:14.648Z,990.21
2023-05-14T12:05:16.313Z,990.21
2023-05-14T12:06:07.789Z,990.16
2023-05-14T12:07:09.506Z,990.08
2023-05-14T12:08:11.232Z,990.11
2023-05-14T12:09:12.992Z,990.14
2023-05-14T12:10:14.729Z,990.08
2023-05-14T12:11:16.432Z,990.14
2023-05-14T12:12:18.157Z,990.07
2023-05-14T12:13:19.918Z,990.09
2023-05-14T12:14:21.653Z,990.06
2023-05-14T12:15:23.385Z,990.07
2023-05-14T12:16:25.124Z,990.02
2023-05-14T12:17:26.939Z,990.07
2023-05-14T12:18:28.641Z,990.03
2023-05-14T12:19:30.393Z,990.02
2023-05-14T12:20:32.037Z,990.01
2023-05-14T12:21:33.766Z,989.98
2023-05-14T12:22:37.049Z,989.95
2023-05-14T12:23:37.217Z,989.97
2023-05-14T12:24:38.964Z,989.96
2023-05-14T12:25:40.708Z,989.92
2023-05-14T12:26:42.438Z,989.92
2023-05-14T12:27:44.171Z,989.92
2023-05-14T12:28:45.885Z,989.89
2023-05-14T12:29:47.629Z,989.79
2023-05-14T12:30:49.342Z,989.81
2023-05-14T12:31:51.290Z,989.83
2023-05-14T12:32:53.236Z,989.79
2023-05-14T12:33:54.568Z,989.78
2023-05-14T12:34:56.316Z,989.82
2023-05-14T12:36:00.506Z,989.82
2023-05-14T12:36:59.776Z,989.81
2023-05-14T12:38:01.517Z,989.77
2023-05-14T12:39:03.350Z,989.81
2023-05-14T12:40:04.990Z,989.73
2023-05-14T12:41:06.717Z,989.76
2023-05-14T12:42:08.483Z,989.75
2023-05-14T12:43:10.192Z,989.76
2023-05-14T12:44:11.909Z,989.6
2023-05-14T12:45:13.653Z,989.65
2023-05-14T12:46:15.379Z,989.64
2023-05-14T12:47:17.215Z,989.64
2023-05-14T12:48:18.845Z,989.65
2023-05-14T12:49:20.586Z,989.6
2023-05-14T12:50:22.648Z,989.6
2023-05-14T12:51:24.081Z,989.59
2023-05-14T12:52:37.786Z,989.55
2023-05-14T12:53:27.498Z,989.57
2023-05-14T12:54:29.233Z,989.52
2023-05-14T12:55:30.971Z,989.49
2023-05-14T12:56:32.703Z,989.47
2023-05-14T12:57:34.450Z,989.4
2023-05-14T12:58:36.191Z,989.4
2023-05-14T12:59:37.910Z,989.42
2023-05-14T13:00:39.738Z,989.44
2023-05-14T13:01:41.529Z,989.4
2023-05-14T13:02:43.952Z,989.41
2023-05-14T13:03:44.886Z,989.37
2023-05-14T13:04:46.670Z,989.33
2023-05-14T13:05:48.324Z,989.36
2023-05-14T13:06:50.033Z,989.35
2023-05-14T13:07:51.781Z,989.29
2023-05-14T13:08:53.523Z,989.34
2023-05-14T13:09:55.268Z,989.34
2023-05-14T13:10:56.996Z,989.33
2023-05-14T13:11:58.763Z,989.25
2023-05-14T13:13:00.593Z,989.26
2023-05-14T13:14:02.188Z,989.26
2023-05-14T13:15:03.901Z,989.22
2023-05-14T13:16:05.672Z,989.22
2023-05-14T13:17:07.525Z,989.19
2023-05-14T13:18:09.166Z,989.24
2023-05-14T13:19:10.972Z,989.23
2023-05-14T13:20:12.590Z,989.19
2023-05-14T13:21:14.343Z,989.2
2023-05-14T13:22:16.042Z,989.16
2023-05-14T13:23:17.781Z,989.17
2023-05-14T13:24:19.512Z,989.25
2023-05-14T13:25:21.243Z,989.2
2023-05-14T13:26:22.987Z,989.18
2023-05-14T13:27:24.842Z,989.23
2023-05-14T13:28:26.452Z,989.17
2023-05-14T13:29:28.168Z,989.17
2023-05-14T13:30:29.943Z,989.17
2023-05-14T13:31:31.806Z,989.16
2023-05-14T13:32:33.419Z,989.18
2023-05-14T13:33:35.160Z,989.16